Time;durP1;ratioP1;P1;durP2;ratioP2;P2;SDS_P1;SDS_P2;PMS_P1;PMS_P2;Temp;Humidity;BMP_temperature;BMP_pressure;BME280_temperature;BME280_humidity;BME280_pressure;Samples;Min_cycle;Max_cycle;Signal;HPM_P1;HPM_P2
2023/06/22 00:02:54;;;;;;;20.60;19.03;;;21.40;99.90;;;;;;2613091;54;20523;-73
2023/06/22 00:08:42;;;;;;;20.57;19.10;;;21.30;99.90;;;;;;2612125;54;20186;-74
2023/06/22 00:14:30;;;;;;;21.07;19.50;;;21.20;99.90;;;;;;2610549;54;20162;-74
2023/06/22 00:20:18;;;;;;;22.53;20.83;;;21.20;99.90;;;;;;2612443;54;20705;-74
2023/06/22 00:26:05;;;;;;;21.03;19.33;;;21.10;99.90;;;;;;2610914;54;20138;-74
2023/06/22 00:31:53;;;;;;;21.67;19.80;;;21.20;99.90;;;;;;2611089;54;20139;-73
2023/06/22 00:37:42;;;;;;;20.50;19.20;;;21.10;99.90;;;;;;2612287;54;20668;-73
2023/06/22 00:43:29;;;;;;;20.93;19.27;;;21.10;99.90;;;;;;2611770;54;20371;-74
2023/06/22 00:46:45;;;;;;;20.33;19.13;;;21.10;99.90;;;;;;2610756;54;20419;-73
2023/06/22 00:49:11;;;;;;;21.43;19.73;;;21.10;99.90;;;;;;2611015;54;20151;-73
2023/06/22 00:55:02;;;;;;;20.27;18.80;;;21.00;99.90;;;;;;2612023;39;20630;-73
2023/06/22 01:00:51;;;;;;;20.20;18.43;;;20.90;99.90;;;;;;2614301;54;20383;-74
2023/06/22 01:13:27;;;;;;;19.90;18.60;;;20.80;99.90;;;;;;2610758;54;20408;-73
2023/06/22 01:19:34;;;;;;;21.53;19.97;;;20.70;99.90;;;;;;2610626;54;20551;-73
2023/06/22 01:31:40;;;;;;;21.57;19.97;;;20.60;99.90;;;;;;2611427;54;20390;-74
2023/06/22 01:37:29;;;;;;;20.57;19.27;;;20.50;99.90;;;;;;2611528;54;20447;-73
2023/06/22 01:43:17;;;;;;;20.70;19.10;;;20.50;99.90;;;;;;2611240;54;21505;-74
2023/06/22 01:49:05;;;;;;;18.90;17.70;;;20.50;99.90;;;;;;2609181;46;20262;-73
2023/06/22 01:54:53;;;;;;;19.70;18.50;;;20.50;99.90;;;;;;2610976;54;20399;-72
2023/06/22 02:06:58;;;;;;;20.97;19.40;;;20.50;99.90;;;;;;2611001;39;20869;-74
2023/06/22 02:12:47;;;;;;;21.73;20.03;;;20.50;99.90;;;;;;2610951;46;20418;-74
2023/06/22 02:18:36;;;;;;;22.23;20.73;;;20.60;99.90;;;;;;2612921;46;20430;-74
2023/06/22 02:24:23;;;;;;;24.83;22.50;;;20.50;99.90;;;;;;2613069;54;20399;-73
2023/06/22 02:30:12;;;;;;;23.20;21.60;;;20.40;99.90;;;;;;2614547;54;20168;-66
2023/06/22 02:36:00;;;;;;;24.57;22.40;;;20.40;99.90;;;;;;2611809;39;20849;-67
2023/06/22 02:41:49;;;;;;;23.27;21.47;;;20.30;99.90;;;;;;2611097;54;20146;-67
2023/06/22 02:51:15;;;;;;;25.87;23.87;;;20.10;99.90;;;;;;2610710;54;21021;-67
2023/06/22 02:57:03;;;;;;;22.50;20.67;;;20.00;99.90;;;;;;2611367;54;21043;-66
2023/06/22 03:02:50;;;;;;;24.87;22.87;;;19.90;99.90;;;;;;2614217;54;20415;-67
2023/06/22 03:08:38;;;;;;;23.10;21.10;;;19.80;99.90;;;;;;2610952;54;20133;-67
2023/06/22 03:14:26;;;;;;;23.40;21.70;;;19.80;99.90;;;;;;2614126;39;20565;-67
2023/06/22 03:20:13;;;;;;;22.77;20.97;;;19.70;99.90;;;;;;2611314;54;20130;-66
2023/06/22 03:26:01;;;;;;;24.27;22.17;;;19.60;99.90;;;;;;2611125;54;20130;-67
2023/06/22 03:31:49;;;;;;;24.70;22.60;;;19.50;99.90;;;;;;2611607;39;20759;-67
2023/06/22 03:37:37;;;;;;;23.90;21.80;;;19.40;99.90;;;;;;2613114;39;20434;-68
2023/06/22 03:43:25;;;;;;;26.43;24.33;;;19.40;99.90;;;;;;2611350;54;20415;-68
2023/06/22 03:46:46;;;;;;;25.80;23.70;;;19.40;99.90;;;;;;2610241;54;20419;-67
2023/06/22 03:49:11;;;;;;;25.07;23.07;;;19.40;99.90;;;;;;2610888;54;20158;-67
2023/06/22 03:54:59;;;;;;;27.87;25.67;;;19.50;99.90;;;;;;2611530;39;20699;-68
2023/06/22 04:00:52;;;;;;;25.70;23.30;;;19.50;99.90;;;;;;2610841;39;20822;-67
2023/06/22 04:06:39;;;;;;;27.90;25.33;;;19.60;99.90;;;;;;2609737;54;20435;-67
2023/06/22 04:12:27;;;;;;;26.60;24.40;;;19.70;99.90;;;;;;2611350;54;20902;-67
2023/06/22 04:18:16;;;;;;;27.00;24.70;;;19.80;99.90;;;;;;2611647;54;20125;-67
2023/06/22 04:24:04;;;;;;;25.97;24.03;;;19.90;99.90;;;;;;2611644;54;21085;-68
2023/06/22 04:29:52;;;;;;;25.50;23.50;;;19.80;99.90;;;;;;2612163;39;20534;-67
2023/06/22 04:35:41;;;;;;;26.40;24.10;;;19.90;99.90;;;;;;2611213;39;20797;-67
2023/06/22 04:41:28;;;;;;;25.53;23.53;;;19.90;99.90;;;;;;2612195;54;20484;-67
2023/06/22 04:51:16;;;;;;;26.57;24.57;;;19.80;99.90;;;;;;2610783;39;20773;-67
2023/06/22 04:57:09;;;;;;;27.50;25.40;;;19.80;99.90;;;;;;2611826;54;20894;-67
2023/06/22 05:02:57;;;;;;;26.37;24.40;;;19.80;99.90;;;;;;2613804;54;21176;-67
2023/06/22 05:08:45;;;;;;;29.93;27.03;;;19.80;99.90;;;;;;2611548;39;20464;-68
2023/06/22 05:14:33;;;;;;;29.20;26.90;;;19.80;99.90;;;;;;2612035;54;20127;-74
2023/06/22 05:20:21;;;;;;;28.20;26.07;;;19.90;99.90;;;;;;2611494;54;20171;-69
2023/06/22 05:26:10;;;;;;;28.03;25.40;;;19.90;99.90;;;;;;2611291;54;20956;-73
2023/06/22 05:31:57;;;;;;;25.77;23.87;;;19.90;99.90;;;;;;2609654;54;20367;-69
2023/06/22 05:37:45;;;;;;;26.53;24.40;;;19.90;99.90;;;;;;2612214;54;20692;-71
2023/06/22 05:43:34;;;;;;;27.57;24.70;;;19.90;99.90;;;;;;2611369;39;20538;-70
2023/06/22 05:46:48;;;;;;;27.40;25.00;;;19.90;99.90;;;;;;2609468;54;20403;-70
2023/06/22 05:49:13;;;;;;;26.43;23.97;;;20.10;99.90;;;;;;2609514;47;20443;-71
2023/06/22 05:55:02;;;;;;;27.30;24.93;;;20.10;99.90;;;;;;2608843;39;20636;-71
2023/06/22 06:00:50;;;;;;;27.53;24.80;;;20.30;99.90;;;;;;2613596;54;20379;-71
2023/06/22 06:06:38;;;;;;;24.37;22.27;;;20.50;99.90;;;;;;2614429;54;20155;-70
2023/06/22 06:12:25;;;;;;;27.97;25.80;;;20.50;99.90;;;;;;2610911;54;20131;-70
2023/06/22 06:18:13;;;;;;;26.17;24.20;;;20.50;99.90;;;;;;2613325;54;20174;-71
2023/06/22 06:24:02;;;;;;;27.70;25.60;;;20.40;99.90;;;;;;2612330;54;20150;-70
2023/06/22 06:29:50;;;;;;;27.40;25.10;;;20.50;99.90;;;;;;2612702;54;20356;-71
2023/06/22 06:35:38;;;;;;;26.50;24.50;;;20.60;99.90;;;;;;2609005;54;20126;-70
2023/06/22 06:41:25;;;;;;;25.60;23.57;;;20.70;99.90;;;;;;2612082;54;20154;-71
2023/06/22 06:51:13;;;;;;;25.50;23.23;;;21.10;99.90;;;;;;2610264;54;20387;-70
2023/06/22 06:57:02;;;;;;;32.23;25.70;;;21.30;99.90;;;;;;2612094;54;20387;-67
2023/06/22 07:02:50;;;;;;;28.27;26.23;;;21.20;99.90;;;;;;2612046;46;20436;-67
2023/06/22 07:05:55;;;;;;;27.10;24.80;;;21.20;99.90;;;;;;2611171;54;20432;-68
2023/06/22 07:08:21;;;;;;;28.67;26.57;;;21.20;99.90;;;;;;2612483;54;20135;-67
2023/06/22 07:14:08;;;;;;;28.53;25.60;;;21.30;99.90;;;;;;2612281;54;20122;-67
2023/06/22 07:19:56;;;;;;;27.57;25.27;;;21.40;99.90;;;;;;2612519;39;20639;-66
2023/06/22 07:25:44;;;;;;;28.33;26.23;;;21.40;99.90;;;;;;2612876;54;20166;-68
2023/06/22 07:31:31;;;;;;;29.13;26.87;;;21.50;99.90;;;;;;2613227;54;20127;-67
2023/06/22 07:37:19;;;;;;;26.27;24.47;;;21.60;99.90;;;;;;2612562;54;20703;-68
2023/06/22 07:43:07;;;;;;;27.20;25.10;;;22.00;99.90;;;;;;2611408;54;20130;-66
2023/06/22 07:48:55;;;;;;;26.20;24.20;;;22.30;99.90;;;;;;2614931;54;20193;-66
2023/06/22 07:54:42;;;;;;;26.10;23.70;;;21.70;99.90;;;;;;2615901;54;20142;-68
2023/06/22 08:00:30;;;;;;;27.00;24.70;;;21.60;99.90;;;;;;2613431;54;20126;-67
2023/06/22 08:06:18;;;;;;;22.93;20.80;;;21.70;99.90;;;;;;2615723;39;20538;-70
2023/06/22 08:12:06;;;;;;;28.00;23.27;;;21.70;99.90;;;;;;2614509;54;20202;-69
2023/06/22 08:15:09;;;;;;;23.97;21.67;;;21.50;99.90;;;;;;2611368;54;20975;-69
2023/06/22 08:17:37;;;;;;;23.80;21.50;;;21.50;99.90;;;;;;2611688;54;20387;-69
2023/06/22 08:23:25;;;;;;;25.53;22.93;;;21.60;99.90;;;;;;2613729;54;20362;-67
2023/06/22 08:29:12;;;;;;;23.73;21.33;;;21.80;99.90;;;;;;2613518;54;20150;-68
2023/06/22 08:35:00;;;;;;;21.47;19.23;;;21.90;99.90;;;;;;2615585;54;20149;-67
2023/06/22 08:40:48;;;;;;;24.73;22.43;;;22.40;99.90;;;;;;2612223;54;20134;-69
2023/06/22 08:46:36;;;;;;;23.43;21.37;;;22.50;99.90;;;;;;2612069;39;20983;-68
2023/06/22 08:52:24;;;;;;;25.70;23.50;;;22.60;99.90;;;;;;2613635;31;21304;-69
2023/06/22 08:58:12;;;;;;;27.77;25.47;;;22.60;99.90;;;;;;2612943;54;20363;-68
2023/06/22 09:04:00;;;;;;;27.63;25.60;;;22.90;99.90;;;;;;2612198;54;20639;-67
2023/06/22 09:09:48;;;;;;;26.50;23.60;;;23.10;99.90;;;;;;2612872;54;20151;-68
2023/06/22 09:15:36;;;;;;;27.27;25.00;;;23.00;99.90;;;;;;2611232;54;21157;-67
2023/06/22 09:21:24;;;;;;;28.93;26.63;;;23.70;99.90;;;;;;2610409;54;20166;-67
2023/06/22 09:27:12;;;;;;;27.80;25.70;;;24.30;99.90;;;;;;2610627;54;20143;-69
2023/06/22 09:33:01;;;;;;;28.43;25.93;;;24.50;99.90;;;;;;2615052;39;20534;-67
2023/06/22 09:38:54;;;;;;;28.90;26.80;;;24.70;99.90;;;;;;2612903;54;20487;-67
2023/06/22 09:44:42;;;;;;;26.77;24.77;;;24.80;99.90;;;;;;2611626;54;20395;-68
2023/06/22 09:50:30;;;;;;;27.67;25.07;;;26.00;99.90;;;;;;2611782;54;20134;-68
2023/06/22 09:56:18;;;;;;;27.97;25.80;;;25.70;99.90;;;;;;2612564;54;21018;-68
2023/06/22 10:02:07;;;;;;;30.83;28.40;;;25.20;99.90;;;;;;2613893;54;20218;-67
2023/06/22 10:07:54;;;;;;;28.67;26.53;;;26.00;99.90;;;;;;2610702;54;20551;-68
2023/06/22 10:13:43;;;;;;;27.47;25.60;;;26.80;99.90;;;;;;2611476;54;20122;-67
2023/06/22 10:19:30;;;;;;;27.17;25.07;;;26.80;99.90;;;;;;2611656;54;20238;-68
2023/06/22 10:25:18;;;;;;;27.83;25.77;;;27.00;99.90;;;;;;2610433;39;20424;-68
2023/06/22 10:31:05;;;;;;;28.67;26.70;;;27.30;99.90;;;;;;2611455;54;20130;-67
2023/06/22 10:36:53;;;;;;;26.90;25.00;;;27.50;99.90;;;;;;2609130;54;20161;-67
2023/06/22 10:42:41;;;;;;;26.80;25.10;;;28.70;99.90;;;;;;2610856;54;21094;-67
2023/06/22 10:51:50;;;;;;;24.23;22.73;;;27.10;99.90;;;;;;2609424;54;20359;-68
2023/06/22 10:57:41;;;;;;;27.47;25.00;;;27.00;99.90;;;;;;2610795;39;20522;-68
2023/06/22 11:03:29;;;;;;;25.73;23.83;;;26.70;99.90;;;;;;2612381;54;20407;-68
2023/06/22 11:06:11;;;;;;;26.10;24.40;;;26.20;99.90;;;;;;2611980;54;20419;-68
2023/06/22 11:08:36;;;;;;;25.73;24.13;;;26.00;99.90;;;;;;2612607;54;20150;-68
2023/06/22 11:14:25;;;;;;;25.63;23.93;;;25.90;99.90;;;;;;2613860;54;20215;-67
2023/06/22 11:20:12;;;;;;;26.70;24.90;;;25.70;99.90;;;;;;2612284;54;20404;-68
2023/06/22 11:26:00;;;;;;;26.23;24.13;;;25.40;99.90;;;;;;2610061;54;20403;-67
2023/06/22 11:31:47;;;;;;;21.17;19.17;;;25.10;99.90;;;;;;2611432;54;20131;-68
2023/06/22 11:37:35;;;;;;;21.50;19.60;;;24.60;99.90;;;;;;2614582;31;20589;-67
2023/06/22 11:43:23;;;;;;;24.07;22.07;;;24.00;99.90;;;;;;2614636;54;20782;-67
2023/06/22 11:52:34;;;;;;;26.40;23.80;;;23.00;99.90;;;;;;2613288;54;20419;-67
2023/06/22 11:58:22;;;;;;;26.83;24.13;;;22.60;99.90;;;;;;2613558;54;20391;-66
2023/06/22 12:04:11;;;;;;;29.73;25.00;;;22.30;99.90;;;;;;2612850;54;20488;-66
2023/06/22 12:09:58;;;;;;;33.70;30.23;;;21.90;99.90;;;;;;2609357;54;21296;-67
2023/06/22 12:15:46;;;;;;;32.87;29.40;;;21.80;99.90;;;;;;2613367;39;20672;-69
2023/06/22 12:21:34;;;;;;;33.50;29.13;;;21.90;99.90;;;;;;2613706;54;20280;-67
2023/06/22 12:27:22;;;;;;;40.70;36.50;;;21.70;99.90;;;;;;2613446;54;20653;-67
2023/06/22 12:33:10;;;;;;;39.10;35.10;;;21.70;99.90;;;;;;2609736;54;20411;-66
2023/06/22 12:35:41;;;;;;;39.50;35.40;;;21.80;99.90;;;;;;2611297;54;20941;-66
2023/06/22 12:38:08;;;;;;;43.90;36.47;;;21.80;99.90;;;;;;2613363;39;20570;-67
2023/06/22 12:43:56;;;;;;;44.30;37.60;;;21.60;99.90;;;;;;2612010;54;20436;-67
2023/06/22 12:53:06;;;;;;;43.70;39.10;;;21.70;99.90;;;;;;2614096;54;20466;-67
2023/06/22 12:58:53;;;;;;;45.27;40.57;;;21.70;99.90;;;;;;2613765;54;20253;-66
2023/06/22 13:04:41;;;;;;;50.90;40.33;;;21.70;99.90;;;;;;2614346;54;20262;-66
2023/06/22 13:10:29;;;;;;;47.27;40.00;;;21.70;99.90;;;;;;2614373;39;20890;-65
2023/06/22 13:16:17;;;;;;;42.40;36.80;;;22.10;99.90;;;;;;2613372;54;20137;-65
2023/06/22 13:22:04;;;;;;;40.80;36.60;;;22.40;99.90;;;;;;2610620;54;20142;-66
2023/06/22 13:27:52;;;;;;;37.80;34.10;;;22.60;99.90;;;;;;2611348;54;20407;-66
2023/06/22 13:33:40;;;;;;;32.20;29.27;;;22.40;99.90;;;;;;2612471;54;20158;-66
2023/06/22 13:39:28;;;;;;;28.73;26.20;;;22.30;99.90;;;;;;2610280;54;21766;-66
2023/06/22 13:45:17;;;;;;;24.33;19.63;;;22.30;99.90;;;;;;2609908;39;20524;-67
2023/06/22 13:48:31;;;;;;;22.73;20.33;;;22.30;99.90;;;;;;2609719;54;20395;-67
2023/06/22 13:50:57;;;;;;;25.43;20.27;;;22.20;99.90;;;;;;2610117;54;20442;-67
2023/06/22 13:56:44;;;;;;;21.77;18.93;;;22.10;99.90;;;;;;2610740;54;20134;-66
2023/06/22 14:02:32;;;;;;;21.43;19.27;;;22.50;99.90;;;;;;2610070;54;20143;-66
2023/06/22 14:08:20;;;;;;;19.23;17.43;;;23.30;99.90;;;;;;2610528;54;20115;-67
2023/06/22 14:14:08;;;;;;;20.67;18.70;;;22.90;99.90;;;;;;2611266;54;20523;-67
2023/06/22 14:19:56;;;;;;;20.30;18.20;;;22.60;99.90;;;;;;2612211;54;20131;-67
2023/06/22 14:25:44;;;;;;;18.80;17.20;;;22.50;99.90;;;;;;2611651;54;20366;-66
2023/06/22 14:31:32;;;;;;;18.73;17.00;;;22.30;99.90;;;;;;2613262;54;20147;-67
2023/06/22 14:37:20;;;;;;;19.20;17.10;;;22.50;99.90;;;;;;2612246;54;20383;-66
2023/06/22 14:43:07;;;;;;;19.90;18.10;;;22.40;99.90;;;;;;2613798;54;20130;-66
2023/06/22 14:52:59;;;;;;;20.00;18.30;;;22.50;99.90;;;;;;2614120;54;20363;-66
2023/06/22 14:58:48;;;;;;;19.30;17.70;;;22.30;99.90;;;;;;2613703;54;20391;-66
2023/06/22 15:04:36;;;;;;;26.47;18.77;;;22.20;99.90;;;;;;2613601;54;20500;-67
2023/06/22 15:10:24;;;;;;;16.07;14.47;;;21.60;99.90;;;;;;2612764;54;20146;-67
2023/06/22 15:16:12;;;;;;;20.70;18.50;;;21.50;99.90;;;;;;2613965;54;21033;-67
2023/06/22 15:21:59;;;;;;;21.03;15.47;;;21.40;99.90;;;;;;2613722;54;20166;-67
2023/06/22 15:27:47;;;;;;;23.93;21.47;;;21.30;99.90;;;;;;2613378;54;20130;-67
2023/06/22 15:33:36;;;;;;;24.57;22.03;;;21.40;99.90;;;;;;2613969;39;20514;-66
2023/06/22 15:39:26;;;;;;;25.07;22.47;;;21.40;99.90;;;;;;2614200;54;20410;-67
2023/06/22 15:45:13;;;;;;;29.97;21.30;;;21.10;99.90;;;;;;2614163;54;20487;-66
2023/06/22 15:48:31;;;;;;;28.87;21.83;;;20.90;99.90;;;;;;2613394;54;20965;-69
2023/06/22 15:50:57;;;;;;;22.30;19.87;;;20.70;99.90;;;;;;2611921;54;20209;-68
2023/06/22 15:56:44;;;;;;;30.83;21.20;;;20.10;99.90;;;;;;2612195;54;20133;-69
2023/06/22 16:02:32;;;;;;;20.30;18.20;;;19.70;99.90;;;;;;2612184;54;21145;-68
2023/06/22 16:08:19;;;;;;;24.17;21.57;;;19.50;99.90;;;;;;2613694;54;20664;-69
2023/06/22 16:14:08;;;;;;;26.07;22.60;;;19.60;99.90;;;;;;2613962;54;20214;-68
2023/06/22 16:19:58;;;;;;;28.43;21.40;;;19.60;99.90;;;;;;2614100;54;20970;-68
2023/06/22 16:25:45;;;;;;;24.73;21.13;;;19.50;99.90;;;;;;2612840;54;20417;-68
2023/06/22 16:31:33;;;;;;;26.70;22.57;;;19.40;99.90;;;;;;2612497;54;20137;-69
2023/06/22 16:37:21;;;;;;;23.00;20.20;;;19.40;99.90;;;;;;2612373;54;20114;-69
2023/06/22 16:43:09;;;;;;;23.97;19.23;;;19.30;99.90;;;;;;2611062;54;20182;-68
2023/06/22 16:52:59;;;;;;;25.77;18.53;;;19.30;99.90;;;;;;2614149;54;20491;-68
2023/06/22 16:58:46;;;;;;;24.80;20.90;;;19.20;99.90;;;;;;2612391;54;20430;-68
2023/06/22 17:04:36;;;;;;;27.40;20.77;;;19.20;99.90;;;;;;2614464;54;20131;-69
2023/06/22 17:10:24;;;;;;;23.17;20.87;;;19.20;99.90;;;;;;2614564;54;20403;-69
2023/06/22 17:16:12;;;;;;;24.23;19.67;;;19.00;99.90;;;;;;2611556;54;20439;-69
2023/06/22 17:21:59;;;;;;;25.13;21.40;;;19.10;99.90;;;;;;2610949;54;20113;-69
2023/06/22 17:27:51;;;;;;;26.60;22.10;;;19.10;99.90;;;;;;2610337;54;20162;-69
2023/06/22 17:33:39;;;;;;;26.60;22.50;;;19.10;99.90;;;;;;2610567;39;20803;-68
2023/06/22 17:39:30;;;;;;;27.57;24.23;;;19.20;99.90;;;;;;2610762;54;20169;-68
2023/06/22 17:45:21;;;;;;;27.20;24.07;;;19.20;99.90;;;;;;2610979;54;20415;-68
2023/06/22 17:48:32;;;;;;;31.90;28.40;;;19.30;99.90;;;;;;2608213;47;21549;-68
2023/06/22 17:51:00;;;;;;;35.33;29.10;;;19.20;99.90;;;;;;2612969;54;21229;-68
2023/06/22 17:56:51;;;;;;;27.60;24.60;;;19.30;99.90;;;;;;2613872;54;20395;-68
2023/06/22 18:02:42;;;;;;;25.07;21.80;;;19.30;99.90;;;;;;2613932;54;20391;-68
2023/06/22 18:08:30;;;;;;;29.00;25.90;;;19.30;99.90;;;;;;2614497;54;20399;-68
2023/06/22 18:14:19;;;;;;;32.03;26.40;;;19.30;99.90;;;;;;2611162;54;20134;-68
2023/06/22 18:20:10;;;;;;;35.30;26.50;;;19.40;99.90;;;;;;2611473;54;20528;-69
2023/06/22 18:25:58;;;;;;;36.43;27.23;;;19.40;99.90;;;;;;2610870;46;20482;-68
2023/06/22 18:31:46;;;;;;;32.60;29.10;;;19.30;99.90;;;;;;2612114;54;20941;-70
2023/06/22 18:37:36;;;;;;;31.73;27.47;;;19.30;99.90;;;;;;2611759;54;20755;-68
2023/06/22 18:43:23;;;;;;;13.60;12.20;;;19.30;99.90;;;;;;2613374;54;20387;-68
2023/06/22 18:53:03;;;;;;;23.87;20.63;;;19.30;99.90;;;;;;2611852;54;20362;-68
2023/06/22 18:58:56;;;;;;;25.27;20.90;;;19.10;99.90;;;;;;2611585;54;20411;-68
2023/06/22 19:04:45;;;;;;;28.53;25.57;;;19.20;99.90;;;;;;2611266;54;20402;-68
2023/06/22 19:10:39;;;;;;;20.17;15.00;;;19.20;99.90;;;;;;2612285;54;20396;-68
2023/06/22 19:16:30;;;;;;;21.60;19.27;;;19.20;99.90;;;;;;2613522;54;20415;-69
2023/06/22 19:22:17;;;;;;;26.63;23.10;;;19.20;99.90;;;;;;2609912;54;20410;-70
2023/06/22 19:28:11;;;;;;;32.80;27.80;;;19.20;99.90;;;;;;2612690;54;20126;-68
2023/06/22 19:34:06;;;;;;;31.80;27.37;;;19.10;99.90;;;;;;2612345;54;20392;-70
2023/06/22 19:39:54;;;;;;;33.60;28.80;;;19.00;99.90;;;;;;2613106;54;20362;-70
2023/06/22 19:45:44;;;;;;;30.73;27.53;;;19.10;99.90;;;;;;2612278;54;20134;-68
2023/06/22 19:48:33;;;;;;;30.37;25.90;;;19.10;99.90;;;;;;2612459;54;20445;-70
2023/06/22 19:51:06;;;;;;;28.17;25.27;;;19.10;99.90;;;;;;2613133;54;20403;-69
2023/06/22 19:56:53;;;;;;;28.07;25.07;;;19.10;99.90;;;;;;2610590;54;20387;-69
2023/06/22 20:02:43;;;;;;;26.40;23.47;;;19.10;99.90;;;;;;2613627;54;20142;-69
2023/06/22 20:05:47;;;;;;;25.50;22.67;;;19.10;99.90;;;;;;2611807;54;20547;-69
2023/06/22 20:08:15;;;;;;;22.70;19.03;;;19.00;99.90;;;;;;2613508;54;20483;-70
2023/06/22 20:14:03;;;;;;;7.73;5.10;;;18.80;99.90;;;;;;2612955;54;20452;-70
2023/06/22 20:19:53;;;;;;;4.17;2.70;;;18.30;99.90;;;;;;2614370;54;20371;-69
2023/06/22 20:25:42;;;;;;;4.37;3.83;;;17.80;99.90;;;;;;2612015;54;20460;-68
2023/06/22 20:31:30;;;;;;;5.90;5.10;;;17.60;99.90;;;;;;2612289;54;20451;-69
2023/06/22 20:37:18;;;;;;;11.97;8.60;;;17.50;99.90;;;;;;2613066;39;20534;-69
2023/06/22 20:43:06;;;;;;;13.80;11.40;;;17.30;99.90;;;;;;2613195;39;20803;-68
2023/06/22 20:53:02;;;;;;;9.17;8.27;;;17.20;99.90;;;;;;2613069;54;20395;-68
2023/06/22 20:58:50;;;;;;;8.03;6.80;;;17.20;99.90;;;;;;2615100;54;20394;-68
2023/06/22 21:04:39;;;;;;;8.73;6.83;;;17.20;99.90;;;;;;2614235;54;20152;-69
2023/06/22 21:10:26;;;;;;;5.77;5.27;;;17.10;99.90;;;;;;2613689;39;20878;-69
2023/06/22 21:16:14;;;;;;;6.57;4.90;;;16.80;99.90;;;;;;2611983;54;20122;-72
2023/06/22 21:22:02;;;;;;;7.30;6.60;;;16.60;99.90;;;;;;2612375;54;20419;-72
2023/06/22 21:27:50;;;;;;;8.50;7.70;;;16.60;99.90;;;;;;2612917;54;20175;-72
2023/06/22 21:33:38;;;;;;;8.73;7.83;;;16.60;99.90;;;;;;2614077;54;20166;-71
2023/06/22 21:39:25;;;;;;;9.37;8.47;;;16.70;99.90;;;;;;2612641;39;20524;-72
2023/06/22 21:45:13;;;;;;;8.30;7.57;;;16.70;99.90;;;;;;2614733;54;20126;-71
2023/06/22 21:51:14;;;;;;;9.43;8.17;;;16.80;99.90;;;;;;2611763;54;20147;-71
2023/06/22 21:57:01;;;;;;;8.50;7.30;;;16.80;99.90;;;;;;2611802;39;20833;-70
2023/06/22 22:02:49;;;;;;;12.83;8.70;;;16.40;99.90;;;;;;2609839;46;20162;-72
2023/06/22 22:08:36;;;;;;;8.23;7.40;;;16.30;99.90;;;;;;2611732;54;20458;-72
2023/06/22 22:14:23;;;;;;;9.90;8.90;;;16.30;99.90;;;;;;2610692;54;20477;-72
2023/06/22 22:20:12;;;;;;;11.30;7.97;;;16.40;99.90;;;;;;2613117;39;20938;-72
2023/06/22 22:25:59;;;;;;;12.33;10.33;;;16.40;99.90;;;;;;2609545;54;20408;-72
2023/06/22 22:31:46;;;;;;;12.20;10.90;;;16.40;99.90;;;;;;2614686;54;20130;-72
2023/06/22 22:37:34;;;;;;;11.63;9.30;;;16.40;99.90;;;;;;2613941;54;20150;-70
2023/06/22 22:43:22;;;;;;;14.70;10.67;;;16.30;99.90;;;;;;2613917;46;20201;-71
2023/06/22 22:53:04;;;;;;;10.67;9.67;;;16.30;99.90;;;;;;2614286;54;20528;-71
2023/06/22 22:58:51;;;;;;;12.97;11.63;;;16.40;99.90;;;;;;2614637;54;20508;-71
2023/06/22 23:04:40;;;;;;;13.07;11.67;;;16.40;99.90;;;;;;2612303;54;20411;-71
2023/06/22 23:10:27;;;;;;;17.00;12.87;;;16.40;99.90;;;;;;2614303;54;20854;-72
2023/06/22 23:16:15;;;;;;;12.37;10.90;;;16.40;99.90;;;;;;2612067;54;21120;-72
2023/06/22 23:22:03;;;;;;;12.07;10.77;;;16.40;99.90;;;;;;2614411;54;20163;-71
2023/06/22 23:27:52;;;;;;;11.40;9.83;;;16.30;99.90;;;;;;2614544;54;20390;-71
2023/06/22 23:33:40;;;;;;;12.83;9.00;;;16.30;99.90;;;;;;2612772;54;20358;-71
2023/06/22 23:39:27;;;;;;;13.37;9.23;;;16.20;99.90;;;;;;2614048;54;20371;-72
2023/06/22 23:45:21;;;;;;;10.70;9.60;;;16.10;99.90;;;;;;2613250;39;20708;-71
2023/06/22 23:48:31;;;;;;;12.70;10.30;;;16.10;99.90;;;;;;2613214;54;20416;-71
2023/06/22 23:50:58;;;;;;;11.03;9.23;;;16.10;99.90;;;;;;2613649;54;20407;-71
2023/06/22 23:56:48;;;;;;;11.60;10.00;;;16.10;99.90;;;;;;2613712;54;20396;-71
